ΕΜΥ, Εθνική Μετεωρολογική Υπηρεσία - Δελτία Καιρού, Προγνώσεις

ΑΕΡΟΝΑΥΤΙΛΙΑ

GREEK AIRPORTS CODES

LGKV 041450Z 26006KT CAVOK 14/08 Q1020=

EUROPEAN AIRPORTS CODES

UUWW 041430Z 30005MPS 4700 -SN BKN020 M01/M04 Q0999 R24/290050TEMPO 1100 SHSN BKN010CB=